Aviation Digital Data Service (ADDS)

Output produced by METARs form (1313 UTC 24 May 2019)
found at http://www.aviationweather.gov/metar/data/
 
MGSJ 241100Z 2412/2512 00000KT 9999 SCT016 BKN070 TX35/2420Z TN24/2412Z 
     BECMG 2415/2417 20008KT SCT018 
     TEMPO 2420/2506 8000 TSRA FEW025CB 
     BECMG 2501/2503 00000KT